Ontario International Airport Ontario US
ICAO: KONT
IATA: ONT
Category: Large
Scheduled Services: Yes

Elevation: 944 ft
TransAlt. 18000 ft.

Airport Communications:
SOCAL APP/DEP:119.65
ATIS:124.25
CLNC DEL:118.1
GND:121.9
TWR:120.6

KONT Zoom In..

Runways:

(A) RW 08L length 12197 ft width 150 ft
ILS 109.70 / hdg 76

(B) RW 08R length 10200 ft width 150 ft
---- / hdg 76

(C) RW 26L length 10200 ft width 150 ft
ILS 111.35 / hdg 256

(D) RW 26R length 12197 ft width 150 ft
ILS 109.70 / hdg 256

Location; KONT
Day. 19 / Time. 20.53 Zulu
* Altimeter: 30.03
* Temperature: 13° c. 55.4°f.
* Wind from: 240° Speed 09 kn.
Dewpoint: 04° c.
Visibility: 10 Statute Miles.
Clouds: Scattered 3200 ft.
Clouds: Overcast 4200 ft.

KONT 192053Z 24009KT 10SM SCT032 OVC042 13/04 A3003 RMK AO2 SLP169 T01330044 58000


Wind From 240°
Speed 09 kn.

  YouTube Music Video
 
jpsmedia.com for Web Design  worldairports.se 2018   terms of use